Time;durP1;ratioP1;P1;durP2;ratioP2;P2;SDS_P1;SDS_P2;PMS_P1;PMS_P2;Temp;Humidity;BMP_temperature;BMP_pressure;BME280_temperature;BME280_humidity;BME280_pressure;Samples;Min_cycle;Max_cycle;Signal;HPM_P1;HPM_P2
2023/02/14 00:00:24;;;;;;;1.83;1.73;;;;;;;;;;4490682;28;20030;-56
2023/02/14 00:02:35;;;;;;;2.20;2.00;;;;;;;;;;4491450;28;20479;-56
2023/02/14 00:04:46;;;;;;;1.90;1.63;;;;;;;;;;4492674;28;20034;-56
2023/02/14 00:06:57;;;;;;;1.95;1.75;;;;;;;;;;4490851;28;20289;-56
2023/02/14 00:09:10;;;;;;;1.60;1.50;;;;;;;;;;4495278;28;20077;-56
2023/02/14 00:11:20;;;;;;;1.40;1.30;;;;;;;;;;4492959;28;20042;-57
2023/02/14 00:13:30;;;;;;;1.50;1.40;;;;;;;;;;4492839;28;20084;-57
2023/02/14 00:15:41;;;;;;;1.30;1.20;;;;;;;;;;4495082;28;20042;-58
2023/02/14 00:17:53;;;;;;;1.20;1.10;;;;;;;;;;4479866;28;20026;-56
2023/02/14 00:20:04;;;;;;;2.42;2.17;;;;;;;;;;4493094;28;20051;-58
2023/02/14 00:22:15;;;;;;;2.40;2.20;;;;;;;;;;4495528;28;20045;-57
2023/02/14 00:24:26;;;;;;;2.03;1.83;;;;;;;;;;4493610;28;20045;-57
2023/02/14 00:26:37;;;;;;;1.75;1.60;;;;;;;;;;4501547;28;20042;-58
2023/02/14 00:28:47;;;;;;;2.15;1.88;;;;;;;;;;4492062;28;20038;-57
2023/02/14 00:31:00;;;;;;;2.10;1.90;;;;;;;;;;4484188;28;20129;-56
2023/02/14 00:33:10;;;;;;;2.00;1.80;;;;;;;;;;4491049;28;20813;-56
2023/02/14 00:35:22;;;;;;;2.08;1.88;;;;;;;;;;4494091;28;20097;-57
2023/02/14 00:37:32;;;;;;;1.70;1.60;;;;;;;;;;4484827;28;20046;-58
2023/02/14 00:39:42;;;;;;;2.03;1.83;;;;;;;;;;4495308;28;20057;-57
2023/02/14 00:41:53;;;;;;;1.90;1.80;;;;;;;;;;4491256;28;20045;-57
2023/02/14 00:44:04;;;;;;;1.70;1.60;;;;;;;;;;4495815;28;20517;-56
2023/02/14 00:46:14;;;;;;;1.83;1.70;;;;;;;;;;4484105;28;20046;-58
2023/02/14 00:48:25;;;;;;;1.77;1.65;;;;;;;;;;4493536;28;20506;-58
2023/02/14 00:50:35;;;;;;;1.60;1.50;;;;;;;;;;4495026;28;20042;-56
2023/02/14 00:52:46;;;;;;;2.00;1.80;;;;;;;;;;4493220;28;20139;-58
2023/02/14 00:54:56;;;;;;;1.95;1.77;;;;;;;;;;4493825;28;20038;-58
2023/02/14 00:57:07;;;;;;;2.00;1.80;;;;;;;;;;4501338;28;20030;-56
2023/02/14 00:59:19;;;;;;;1.83;1.73;;;;;;;;;;4499719;28;20082;-57
2023/02/14 01:01:30;;;;;;;2.00;1.88;;;;;;;;;;4493579;28;20038;-56
2023/02/14 01:03:40;;;;;;;2.15;1.95;;;;;;;;;;4491811;28;20562;-57
2023/02/14 01:05:51;;;;;;;2.17;1.98;;;;;;;;;;4490460;28;20129;-56
2023/02/14 01:08:01;;;;;;;2.03;1.88;;;;;;;;;;4493107;28;20513;-57
2023/02/14 01:10:12;;;;;;;2.30;2.10;;;;;;;;;;4493031;28;20038;-57
2023/02/14 01:12:22;;;;;;;2.38;2.17;;;;;;;;;;4492522;28;20045;-57
2023/02/14 01:14:32;;;;;;;2.20;2.00;;;;;;;;;;4491758;28;20042;-56
2023/02/14 01:16:43;;;;;;;2.15;1.95;;;;;;;;;;4491823;28;20037;-55
2023/02/14 01:18:53;;;;;;;2.20;2.00;;;;;;;;;;4492471;28;20042;-55
2023/02/14 01:21:11;;;;;;;1.90;1.80;;;;;;;;;;4490557;28;20038;-56
2023/02/14 01:23:21;;;;;;;2.03;1.83;;;;;;;;;;4492600;28;20037;-55
2023/02/14 01:25:32;;;;;;;2.30;1.77;;;;;;;;;;4491571;28;20045;-54
2023/02/14 01:27:43;;;;;;;1.98;1.77;;;;;;;;;;4496355;28;20062;-56
2023/02/14 01:29:53;;;;;;;1.83;1.70;;;;;;;;;;4491132;28;20423;-55
2023/02/14 01:32:03;;;;;;;1.85;1.75;;;;;;;;;;4491993;28;20041;-56
2023/02/14 01:34:14;;;;;;;1.83;1.73;;;;;;;;;;4493352;28;20502;-55
2023/02/14 01:36:50;;;;;;;1.75;1.60;;;;;;;;;;4492849;28;20077;-56
2023/02/14 01:39:04;;;;;;;1.55;1.45;;;;;;;;;;4490889;28;20050;-55
2023/02/14 01:41:14;;;;;;;1.67;1.50;;;;;;;;;;4491730;28;20080;-54
2023/02/14 01:43:24;;;;;;;1.70;1.60;;;;;;;;;;4478611;28;20213;-56
2023/02/14 01:45:35;;;;;;;1.70;1.60;;;;;;;;;;4492026;28;20050;-56
2023/02/14 01:47:47;;;;;;;1.70;1.60;;;;;;;;;;4492881;28;20114;-55
2023/02/14 01:50:03;;;;;;;1.85;1.65;;;;;;;;;;4493332;28;20046;-55
2023/02/14 01:52:43;;;;;;;1.50;1.40;;;;;;;;;;4492719;28;20038;-56
2023/02/14 01:54:59;;;;;;;1.90;1.70;;;;;;;;;;4481289;28;20057;-56
2023/02/14 01:57:12;;;;;;;1.70;1.60;;;;;;;;;;4500043;28;20998;-56
2023/02/14 01:59:23;;;;;;;2.10;1.70;;;;;;;;;;4501759;28;20049;-55
2023/02/14 02:01:34;;;;;;;1.90;1.77;;;;;;;;;;4493538;28;20038;-56
2023/02/14 02:03:52;;;;;;;1.80;1.70;;;;;;;;;;4492444;28;20558;-55
2023/02/14 02:06:12;;;;;;;1.90;1.80;;;;;;;;;;4492910;28;20038;-56
2023/02/14 02:08:23;;;;;;;1.65;1.55;;;;;;;;;;4492028;28;20077;-56
2023/02/14 02:10:33;;;;;;;1.80;1.70;;;;;;;;;;4491280;28;20158;-56
2023/02/14 02:12:44;;;;;;;1.60;1.50;;;;;;;;;;4491597;28;20121;-56
2023/02/14 02:14:55;;;;;;;1.60;1.50;;;;;;;;;;4495281;28;20049;-56
2023/02/14 02:17:05;;;;;;;1.67;1.50;;;;;;;;;;4500177;28;20037;-56
2023/02/14 02:19:24;;;;;;;1.70;1.60;;;;;;;;;;4492665;28;20057;-57
2023/02/14 02:21:37;;;;;;;1.70;1.60;;;;;;;;;;4491989;28;20041;-56
2023/02/14 02:23:57;;;;;;;1.70;1.60;;;;;;;;;;4484904;28;20140;-56
2023/02/14 02:26:07;;;;;;;1.63;1.50;;;;;;;;;;4484255;28;20153;-56
2023/02/14 02:28:35;;;;;;;2.05;1.75;;;;;;;;;;4492348;28;20077;-56
2023/02/14 02:31:05;;;;;;;1.52;1.42;;;;;;;;;;4492628;28;20541;-57
2023/02/14 02:33:34;;;;;;;1.60;1.50;;;;;;;;;;4506605;28;20053;-56
2023/02/14 02:36:20;;;;;;;2.00;1.80;;;;;;;;;;4499439;28;20053;-56
2023/02/14 02:38:30;;;;;;;1.60;1.50;;;;;;;;;;4463477;28;20069;-56
2023/02/14 02:40:46;;;;;;;1.50;1.40;;;;;;;;;;4481781;28;20053;-56
2023/02/14 02:43:16;;;;;;;1.50;1.40;;;;;;;;;;4491622;28;20033;-57
2023/02/14 02:45:35;;;;;;;1.70;1.60;;;;;;;;;;4492810;28;20046;-55
2023/02/14 02:47:48;;;;;;;1.80;1.52;;;;;;;;;;4491575;28;20621;-56
2023/02/14 02:53:02;;;;;;;1.92;1.60;;;;;;;;;;4491871;28;20153;-56
2023/02/14 02:55:18;;;;;;;1.60;1.50;;;;;;;;;;4491801;28;20037;-55
2023/02/14 02:57:33;;;;;;;1.60;1.50;;;;;;;;;;4490750;28;20573;-56
2023/02/14 02:59:44;;;;;;;1.73;1.63;;;;;;;;;;4494405;28;20686;-56
2023/02/14 03:02:09;;;;;;;1.85;1.70;;;;;;;;;;4493004;28;20129;-57
2023/02/14 03:06:50;;;;;;;1.70;1.60;;;;;;;;;;4491970;28;20092;-56
2023/02/14 03:09:10;;;;;;;1.60;1.50;;;;;;;;;;4490068;28;20509;-56
2023/02/14 03:11:21;;;;;;;1.73;1.63;;;;;;;;;;4490955;28;20403;-56
2023/02/14 03:13:44;;;;;;;1.50;1.40;;;;;;;;;;4493850;28;20103;-57
2023/02/14 03:16:07;;;;;;;1.60;1.50;;;;;;;;;;4494399;28;20098;-56
2023/02/14 03:18:41;;;;;;;1.80;1.60;;;;;;;;;;4490465;28;20031;-56
2023/02/14 03:21:10;;;;;;;1.40;1.30;;;;;;;;;;4490840;28;20037;-56
2023/02/14 03:23:31;;;;;;;1.50;1.40;;;;;;;;;;4506797;28;21323;-56
2023/02/14 03:25:52;;;;;;;1.35;1.25;;;;;;;;;;4506748;28;20729;-56
2023/02/14 03:28:03;;;;;;;1.60;1.50;;;;;;;;;;4492166;28;20133;-57
2023/02/14 03:30:16;;;;;;;1.40;1.30;;;;;;;;;;4492092;28;20161;-57
2023/02/14 03:32:32;;;;;;;1.50;1.40;;;;;;;;;;4492838;28;20172;-56
2023/02/14 03:34:45;;;;;;;2.00;1.80;;;;;;;;;;4493981;28;20579;-56
2023/02/14 03:37:02;;;;;;;1.77;1.67;;;;;;;;;;4508736;28;20042;-56
2023/02/14 03:39:18;;;;;;;1.70;1.60;;;;;;;;;;4493238;28;20600;-56
2023/02/14 03:41:32;;;;;;;1.70;1.60;;;;;;;;;;4505778;28;20034;-56
2023/02/14 03:43:45;;;;;;;1.50;1.40;;;;;;;;;;4503783;28;20048;-56
2023/02/14 03:46:05;;;;;;;1.63;1.52;;;;;;;;;;4493508;28;20102;-55
2023/02/14 03:48:17;;;;;;;1.58;1.48;;;;;;;;;;4492646;28;20133;-56
2023/02/14 03:50:28;;;;;;;1.60;1.50;;;;;;;;;;4492956;28;20033;-56
2023/02/14 03:52:39;;;;;;;1.70;1.60;;;;;;;;;;4494800;28;20033;-56
2023/02/14 03:54:52;;;;;;;1.65;1.55;;;;;;;;;;4493318;28;20141;-56
2023/02/14 03:57:10;;;;;;;1.73;1.40;;;;;;;;;;4493017;28;20041;-57
2023/02/14 03:59:22;;;;;;;1.60;1.50;;;;;;;;;;4495195;28;20037;-56
2023/02/14 04:01:38;;;;;;;2.03;1.60;;;;;;;;;;4495496;28;20042;-56
2023/02/14 04:03:49;;;;;;;1.67;1.55;;;;;;;;;;4493363;28;20045;-57
2023/02/14 04:05:59;;;;;;;1.48;1.38;;;;;;;;;;4493444;28;20152;-56
2023/02/14 04:08:10;;;;;;;1.48;1.38;;;;;;;;;;4494316;28;20038;-56
2023/02/14 04:10:21;;;;;;;1.33;1.23;;;;;;;;;;4493001;28;20045;-57
2023/02/14 04:12:31;;;;;;;1.45;1.35;;;;;;;;;;4493670;28;20038;-56
2023/02/14 04:14:42;;;;;;;1.60;1.50;;;;;;;;;;4492916;28;20058;-56
2023/02/14 04:19:21;;;;;;;1.80;1.50;;;;;;;;;;4497364;28;20140;-57
2023/02/14 04:21:32;;;;;;;1.50;1.40;;;;;;;;;;4494348;28;20196;-57
2023/02/14 04:23:42;;;;;;;1.55;1.45;;;;;;;;;;4501892;28;20046;-56
2023/02/14 04:25:52;;;;;;;1.45;1.35;;;;;;;;;;4494543;28;20031;-56
2023/02/14 04:28:03;;;;;;;1.75;1.48;;;;;;;;;;4490752;28;20104;-57
2023/02/14 04:30:13;;;;;;;1.40;1.30;;;;;;;;;;4493044;28;20044;-56
2023/02/14 04:32:23;;;;;;;1.50;1.40;;;;;;;;;;4493345;28;20037;-56
2023/02/14 04:34:34;;;;;;;1.60;1.50;;;;;;;;;;4492967;28;20037;-56
2023/02/14 04:36:44;;;;;;;1.83;1.45;;;;;;;;;;4493281;28;20482;-56
2023/02/14 04:38:55;;;;;;;1.80;1.65;;;;;;;;;;4492915;28;20050;-57
2023/02/14 04:41:05;;;;;;;1.33;1.20;;;;;;;;;;4492178;28;20574;-56
2023/02/14 04:43:15;;;;;;;1.50;1.40;;;;;;;;;;4493322;28;20387;-55
2023/02/14 04:45:26;;;;;;;1.40;1.30;;;;;;;;;;4492226;28;20045;-56
2023/02/14 04:47:36;;;;;;;1.30;1.20;;;;;;;;;;4492263;28;20039;-57
2023/02/14 04:49:47;;;;;;;1.50;1.40;;;;;;;;;;4492629;28;20076;-56
2023/02/14 04:51:57;;;;;;;1.35;1.25;;;;;;;;;;4494455;28;20030;-56
2023/02/14 04:54:07;;;;;;;1.48;1.38;;;;;;;;;;4492700;28;20109;-56
2023/02/14 04:56:18;;;;;;;1.50;1.40;;;;;;;;;;4491134;28;20051;-56
2023/02/14 04:58:28;;;;;;;1.30;1.20;;;;;;;;;;4492073;28;20532;-56
2023/02/14 05:00:38;;;;;;;1.42;1.33;;;;;;;;;;4494098;28;20033;-56
2023/02/14 05:02:48;;;;;;;1.30;1.20;;;;;;;;;;4493362;28;20050;-55
2023/02/14 05:04:59;;;;;;;2.90;1.50;;;;;;;;;;4492736;28;20044;-56
2023/02/14 05:07:09;;;;;;;1.50;1.40;;;;;;;;;;4492696;28;20121;-56
2023/02/14 05:09:19;;;;;;;1.30;1.20;;;;;;;;;;4492532;28;20104;-56
2023/02/14 05:11:30;;;;;;;1.42;1.33;;;;;;;;;;4493439;28;20490;-56
2023/02/14 05:13:40;;;;;;;1.25;1.15;;;;;;;;;;4492893;28;20611;-56
2023/02/14 05:15:50;;;;;;;1.30;1.20;;;;;;;;;;4490587;28;20399;-56
2023/02/14 05:18:01;;;;;;;1.33;1.23;;;;;;;;;;4499676;28;20073;-55
2023/02/14 05:20:12;;;;;;;1.27;1.17;;;;;;;;;;4492643;28;20033;-56
2023/02/14 05:22:22;;;;;;;1.35;1.25;;;;;;;;;;4492656;28;20041;-56
2023/02/14 05:24:32;;;;;;;1.17;1.08;;;;;;;;;;4492238;28;20089;-56
2023/02/14 05:26:43;;;;;;;1.30;1.20;;;;;;;;;;4493127;28;20042;-57
2023/02/14 05:28:53;;;;;;;1.40;1.30;;;;;;;;;;4494842;28;20034;-56
2023/02/14 05:31:03;;;;;;;1.60;1.27;;;;;;;;;;4494120;28;20053;-56
2023/02/14 05:33:14;;;;;;;1.30;1.20;;;;;;;;;;4493968;28;20033;-57
2023/02/14 05:35:24;;;;;;;1.30;1.20;;;;;;;;;;4494538;28;20438;-56
2023/02/14 05:37:34;;;;;;;1.33;1.13;;;;;;;;;;4492265;28;20609;-56
2023/02/14 05:39:44;;;;;;;1.42;1.33;;;;;;;;;;4496590;28;20552;-56
2023/02/14 05:41:55;;;;;;;1.20;1.10;;;;;;;;;;4490399;28;20042;-55
2023/02/14 05:44:05;;;;;;;1.40;1.30;;;;;;;;;;4493157;28;20402;-56
2023/02/14 05:46:15;;;;;;;1.48;1.38;;;;;;;;;;4491108;28;20030;-56
2023/02/14 05:48:26;;;;;;;1.33;1.23;;;;;;;;;;4490877;28;20046;-57
2023/02/14 05:50:36;;;;;;;1.50;1.40;;;;;;;;;;4491546;28;20033;-55
2023/02/14 05:52:46;;;;;;;1.30;1.20;;;;;;;;;;4491344;28;20513;-56
2023/02/14 05:54:57;;;;;;;2.20;2.00;;;;;;;;;;4492225;28;20046;-56
2023/02/14 05:57:07;;;;;;;1.67;1.50;;;;;;;;;;4499454;28;20049;-57
2023/02/14 05:59:17;;;;;;;1.40;1.30;;;;;;;;;;4491417;28;20046;-56
2023/02/14 06:01:28;;;;;;;1.30;1.20;;;;;;;;;;4493921;28;20045;-56
2023/02/14 06:03:38;;;;;;;1.38;1.27;;;;;;;;;;4491832;28;20042;-56
2023/02/14 06:05:48;;;;;;;1.60;1.20;;;;;;;;;;4494276;28;20052;-56
2023/02/14 06:08:00;;;;;;;1.40;1.30;;;;;;;;;;4491532;28;20161;-57
2023/02/14 06:10:11;;;;;;;1.80;1.50;;;;;;;;;;4492631;28;20026;-54
2023/02/14 06:12:21;;;;;;;1.25;1.15;;;;;;;;;;4491415;28;20060;-57
2023/02/14 06:14:32;;;;;;;1.83;1.40;;;;;;;;;;4491054;28;20038;-56
2023/02/14 06:16:42;;;;;;;1.13;1.10;;;;;;;;;;4491975;28;20026;-56
2023/02/14 06:18:52;;;;;;;1.20;1.10;;;;;;;;;;4492345;28;20491;-56
2023/02/14 06:21:03;;;;;;;1.30;1.20;;;;;;;;;;4491780;28;20042;-57
2023/02/14 06:23:13;;;;;;;1.27;1.17;;;;;;;;;;4492730;28;20529;-61
2023/02/14 06:25:23;;;;;;;1.42;1.33;;;;;;;;;;4490545;28;20038;-60
2023/02/14 06:27:34;;;;;;;1.38;1.27;;;;;;;;;;4490292;28;20487;-59
2023/02/14 06:29:44;;;;;;;1.20;1.10;;;;;;;;;;4490233;28;20073;-57
2023/02/14 06:31:54;;;;;;;1.20;1.10;;;;;;;;;;4489649;28;20053;-56
2023/02/14 06:34:05;;;;;;;1.25;1.15;;;;;;;;;;4498851;28;20034;-57
2023/02/14 06:36:15;;;;;;;1.33;1.23;;;;;;;;;;4477419;28;20690;-56
2023/02/14 06:38:25;;;;;;;1.10;1.05;;;;;;;;;;4488838;28;20031;-56
2023/02/14 06:40:36;;;;;;;1.55;1.13;;;;;;;;;;4491616;28;21088;-57
2023/02/14 06:42:46;;;;;;;1.30;1.20;;;;;;;;;;4491047;28;20461;-56
2023/02/14 06:44:56;;;;;;;1.40;1.30;;;;;;;;;;4498998;28;20042;-56
2023/02/14 06:47:07;;;;;;;1.30;1.20;;;;;;;;;;4491488;28;20040;-57
2023/02/14 06:49:17;;;;;;;1.45;1.35;;;;;;;;;;4491220;28;20546;-56
2023/02/14 06:51:27;;;;;;;1.30;1.20;;;;;;;;;;4489399;28;20482;-57
2023/02/14 06:53:38;;;;;;;1.27;1.17;;;;;;;;;;4489472;28;20161;-57
2023/02/14 06:55:48;;;;;;;1.30;1.10;;;;;;;;;;4491826;28;20050;-57
2023/02/14 06:57:58;;;;;;;1.30;1.20;;;;;;;;;;4490051;28;20307;-57
2023/02/14 07:00:11;;;;;;;1.30;1.20;;;;;;;;;;4489228;28;20577;-57
2023/02/14 07:02:21;;;;;;;1.35;1.25;;;;;;;;;;4487180;28;20634;-57
2023/02/14 07:04:32;;;;;;;1.60;1.50;;;;;;;;;;4488995;28;20056;-57
2023/02/14 07:06:43;;;;;;;1.42;1.20;;;;;;;;;;4494136;28;20033;-57
2023/02/14 07:08:53;;;;;;;1.38;1.27;;;;;;;;;;4490523;28;20129;-57
2023/02/14 07:11:03;;;;;;;1.42;1.33;;;;;;;;;;4491432;28;20030;-58
2023/02/14 07:13:14;;;;;;;1.30;1.20;;;;;;;;;;4494104;28;20554;-58
2023/02/14 07:15:24;;;;;;;1.33;1.23;;;;;;;;;;4491076;28;20637;-58
2023/02/14 07:17:34;;;;;;;1.42;1.33;;;;;;;;;;4492072;28;20077;-58
2023/02/14 07:19:45;;;;;;;1.40;1.30;;;;;;;;;;4490427;28;20038;-57
2023/02/14 07:21:55;;;;;;;1.40;1.30;;;;;;;;;;4492317;28;20551;-59
2023/02/14 07:24:05;;;;;;;1.35;1.25;;;;;;;;;;4491080;28;20038;-58
2023/02/14 07:26:17;;;;;;;1.58;1.48;;;;;;;;;;4490920;28;20309;-58
2023/02/14 07:28:29;;;;;;;1.60;1.50;;;;;;;;;;4492341;28;20590;-58
2023/02/14 07:30:39;;;;;;;1.40;1.30;;;;;;;;;;4491601;28;20045;-58
2023/02/14 07:32:49;;;;;;;1.63;1.52;;;;;;;;;;4501235;28;20045;-58
2023/02/14 07:35:00;;;;;;;1.45;1.35;;;;;;;;;;4491779;28;20054;-58
2023/02/14 07:37:10;;;;;;;1.63;1.40;;;;;;;;;;4492053;28;20472;-58
2023/02/14 07:39:20;;;;;;;1.48;1.38;;;;;;;;;;4491812;28;20104;-58
2023/02/14 07:41:31;;;;;;;1.50;1.40;;;;;;;;;;4492863;28;20077;-58
2023/02/14 07:43:41;;;;;;;1.70;1.45;;;;;;;;;;4492120;28;20073;-60
2023/02/14 07:45:51;;;;;;;1.50;1.40;;;;;;;;;;4494878;28;20030;-59
2023/02/14 07:48:02;;;;;;;1.60;1.48;;;;;;;;;;4491519;28;20140;-61
2023/02/14 07:50:12;;;;;;;1.50;1.35;;;;;;;;;;4492398;28;20029;-60
2023/02/14 07:52:22;;;;;;;1.48;1.30;;;;;;;;;;4492918;28;20387;-60
2023/02/14 07:54:33;;;;;;;1.40;1.30;;;;;;;;;;4490318;28;20425;-57
2023/02/14 07:56:43;;;;;;;1.30;1.20;;;;;;;;;;4493836;28;20043;-58
2023/02/14 07:58:54;;;;;;;1.40;1.30;;;;;;;;;;4491565;28;20033;-58
2023/02/14 08:01:04;;;;;;;1.58;1.48;;;;;;;;;;4494778;28;20064;-58
2023/02/14 08:03:14;;;;;;;1.55;1.38;;;;;;;;;;4490905;28;20905;-58
2023/02/14 08:05:25;;;;;;;1.88;1.70;;;;;;;;;;4491855;28;20107;-58
2023/02/14 08:07:35;;;;;;;1.75;1.60;;;;;;;;;;4490681;28;20053;-57
2023/02/14 08:09:45;;;;;;;2.00;1.80;;;;;;;;;;4492199;28;20173;-58
2023/02/14 08:14:25;;;;;;;2.28;1.85;;;;;;;;;;4491793;28;20038;-58
2023/02/14 08:16:37;;;;;;;2.20;1.98;;;;;;;;;;4493918;28;20054;-58
2023/02/14 08:18:47;;;;;;;2.20;2.00;;;;;;;;;;4491687;28;20017;-59
2023/02/14 08:20:57;;;;;;;2.13;1.90;;;;;;;;;;4490933;28;20038;-57
2023/02/14 08:23:08;;;;;;;2.20;2.00;;;;;;;;;;4490417;28;20195;-58
2023/02/14 08:25:18;;;;;;;2.10;1.90;;;;;;;;;;4491594;28;20356;-58
2023/02/14 08:27:28;;;;;;;2.35;1.98;;;;;;;;;;4490289;28;20042;-57
2023/02/14 08:29:39;;;;;;;2.05;1.85;;;;;;;;;;4491019;28;20050;-58
2023/02/14 08:31:49;;;;;;;1.83;1.65;;;;;;;;;;4491576;28;20030;-57
2023/02/14 08:33:59;;;;;;;1.90;1.70;;;;;;;;;;4489548;28;20422;-57
2023/02/14 08:36:09;;;;;;;1.73;1.42;;;;;;;;;;4490630;28;20038;-58
2023/02/14 08:38:20;;;;;;;1.83;1.60;;;;;;;;;;4490697;28;20499;-58
2023/02/14 08:40:31;;;;;;;1.50;1.40;;;;;;;;;;4492938;28;20525;-57
2023/02/14 08:42:42;;;;;;;1.85;1.65;;;;;;;;;;4491520;28;20034;-58
2023/02/14 08:44:52;;;;;;;1.80;1.60;;;;;;;;;;4491168;28;20038;-57
2023/02/14 08:47:02;;;;;;;1.50;1.40;;;;;;;;;;4492383;28;20156;-58
2023/02/14 08:49:13;;;;;;;1.40;1.30;;;;;;;;;;4489945;28;20033;-58
2023/02/14 08:51:24;;;;;;;1.65;1.38;;;;;;;;;;4491322;28;20048;-58
2023/02/14 08:53:35;;;;;;;1.30;1.20;;;;;;;;;;4490613;28;20049;-58
2023/02/14 08:55:46;;;;;;;1.30;1.20;;;;;;;;;;4499277;28;20041;-58
2023/02/14 08:57:56;;;;;;;1.40;1.30;;;;;;;;;;4489951;28;20303;-57
2023/02/14 09:00:08;;;;;;;1.25;1.15;;;;;;;;;;4492954;28;20038;-57
2023/02/14 09:02:18;;;;;;;1.20;1.10;;;;;;;;;;4490021;28;20034;-57
2023/02/14 09:04:29;;;;;;;1.35;1.25;;;;;;;;;;4491327;28;20407;-58
2023/02/14 09:06:39;;;;;;;1.23;1.13;;;;;;;;;;4490832;28;20057;-58
2023/02/14 09:08:50;;;;;;;1.50;1.40;;;;;;;;;;4491372;28;20030;-58
2023/02/14 09:11:14;;;;;;;1.50;1.40;;;;;;;;;;4490247;28;20505;-58
2023/02/14 09:13:24;;;;;;;1.30;1.20;;;;;;;;;;4491369;28;20040;-58
2023/02/14 09:15:35;;;;;;;1.38;1.27;;;;;;;;;;4491880;28;20046;-57
2023/02/14 09:17:45;;;;;;;1.52;1.42;;;;;;;;;;4488796;28;20403;-58
2023/02/14 09:19:56;;;;;;;1.60;1.30;;;;;;;;;;4490752;28;20042;-57
2023/02/14 09:22:07;;;;;;;1.23;1.13;;;;;;;;;;4489539;28;20034;-57
2023/02/14 09:24:17;;;;;;;1.08;1.00;;;;;;;;;;4494699;28;20068;-57
2023/02/14 09:26:27;;;;;;;1.20;1.10;;;;;;;;;;4497741;28;20030;-58
2023/02/14 09:28:38;;;;;;;1.20;1.10;;;;;;;;;;4489844;28;20100;-59
2023/02/14 09:30:48;;;;;;;1.15;1.05;;;;;;;;;;4490677;28;20041;-57
2023/02/14 09:32:59;;;;;;;1.60;1.08;;;;;;;;;;4493331;28;20041;-58
2023/02/14 09:35:27;;;;;;;1.25;1.15;;;;;;;;;;4491427;28;20033;-57
2023/02/14 09:37:37;;;;;;;1.13;1.02;;;;;;;;;;4489749;28;20102;-58
2023/02/14 09:39:48;;;;;;;1.65;1.10;;;;;;;;;;4493615;28;20068;-57
2023/02/14 09:41:58;;;;;;;1.55;1.23;;;;;;;;;;4492048;28;20032;-57
2023/02/14 09:44:17;;;;;;;1.15;1.05;;;;;;;;;;4492133;28;20039;-57
2023/02/14 09:46:28;;;;;;;1.13;1.00;;;;;;;;;;4499022;28;20684;-58
2023/02/14 09:48:40;;;;;;;1.48;1.30;;;;;;;;;;4491914;28;20795;-57
2023/02/14 09:50:53;;;;;;;1.30;1.15;;;;;;;;;;4483216;28;21108;-58
2023/02/14 09:53:06;;;;;;;1.10;1.00;;;;;;;;;;4488206;28;20786;-58
2023/02/14 09:55:17;;;;;;;1.00;0.90;;;;;;;;;;4490886;28;20049;-57
2023/02/14 09:57:37;;;;;;;0.80;0.80;;;;;;;;;;4492507;28;20053;-57
2023/02/14 09:59:53;;;;;;;0.88;0.88;;;;;;;;;;4500417;28;20045;-57
2023/02/14 10:02:19;;;;;;;1.05;1.00;;;;;;;;;;4488613;28;20026;-56
2023/02/14 10:04:35;;;;;;;1.00;0.90;;;;;;;;;;4491840;28;20101;-56
2023/02/14 10:06:45;;;;;;;1.10;1.00;;;;;;;;;;4490604;28;20053;-57
2023/02/14 10:09:10;;;;;;;1.10;1.00;;;;;;;;;;4491855;28;20284;-57
2023/02/14 10:11:23;;;;;;;0.93;0.90;;;;;;;;;;4491115;28;21030;-57
2023/02/14 10:13:39;;;;;;;1.02;0.93;;;;;;;;;;4489557;28;20026;-57
2023/02/14 10:15:57;;;;;;;1.30;1.15;;;;;;;;;;4492233;28;20050;-56
2023/02/14 10:18:11;;;;;;;1.67;1.40;;;;;;;;;;4497851;28;20034;-57
2023/02/14 10:20:33;;;;;;;1.50;1.40;;;;;;;;;;4489194;28;20519;-59
2023/02/14 10:22:47;;;;;;;1.75;1.58;;;;;;;;;;4489339;28;20589;-56
2023/02/14 10:25:00;;;;;;;2.20;1.27;;;;;;;;;;4489235;28;20045;-60
2023/02/14 10:27:29;;;;;;;1.13;1.02;;;;;;;;;;4488812;28;20893;-58
2023/02/14 10:29:40;;;;;;;1.23;1.00;;;;;;;;;;4488310;28;21098;-56
2023/02/14 10:31:58;;;;;;;0.80;0.80;;;;;;;;;;4489327;28;20034;-59
2023/02/14 10:34:31;;;;;;;0.80;0.80;;;;;;;;;;4497199;28;20409;-57
2023/02/14 10:36:57;;;;;;;1.00;0.80;;;;;;;;;;4483623;28;20124;-55
2023/02/14 10:39:07;;;;;;;1.10;1.00;;;;;;;;;;4489126;28;20100;-56
2023/02/14 10:41:23;;;;;;;0.70;0.70;;;;;;;;;;4491565;28;20125;-58
2023/02/14 10:43:45;;;;;;;0.77;0.77;;;;;;;;;;4490414;28;20168;-57
2023/02/14 10:46:02;;;;;;;0.75;0.75;;;;;;;;;;4489382;28;20029;-57
2023/02/14 10:48:31;;;;;;;1.20;1.10;;;;;;;;;;4489168;28;20691;-57
2023/02/14 10:50:50;;;;;;;0.75;0.75;;;;;;;;;;4490456;28;20177;-57
2023/02/14 10:53:11;;;;;;;0.80;0.80;;;;;;;;;;4488176;28;20134;-57
2023/02/14 10:55:42;;;;;;;1.05;0.90;;;;;;;;;;4487513;28;20153;-57
2023/02/14 10:57:54;;;;;;;0.80;0.80;;;;;;;;;;4497731;28;20695;-57
2023/02/14 11:00:06;;;;;;;0.70;0.70;;;;;;;;;;4490556;28;20039;-56
2023/02/14 11:02:19;;;;;;;1.15;0.85;;;;;;;;;;4489155;28;20030;-57
2023/02/14 11:04:30;;;;;;;0.70;0.70;;;;;;;;;;4489138;28;20144;-56
2023/02/14 11:06:40;;;;;;;0.85;0.80;;;;;;;;;;4490481;28;20031;-57
2023/02/14 11:08:50;;;;;;;1.10;1.00;;;;;;;;;;4488892;28;20042;-56
2023/02/14 11:11:15;;;;;;;1.20;1.10;;;;;;;;;;4490238;28;20567;-57
2023/02/14 11:13:27;;;;;;;1.05;1.05;;;;;;;;;;4489050;28;20081;-58
2023/02/14 11:15:38;;;;;;;0.98;0.88;;;;;;;;;;4490062;28;20048;-60
2023/02/14 11:17:49;;;;;;;0.88;0.80;;;;;;;;;;4491084;28;20065;-58
2023/02/14 11:20:01;;;;;;;1.00;0.90;;;;;;;;;;4490777;28;20606;-58
2023/02/14 11:22:27;;;;;;;1.10;1.00;;;;;;;;;;4490754;28;20033;-58
2023/02/14 11:24:40;;;;;;;0.90;0.90;;;;;;;;;;4498758;28;20624;-59
2023/02/14 11:26:51;;;;;;;1.10;1.00;;;;;;;;;;4488415;28;20034;-60
2023/02/14 11:29:10;;;;;;;1.00;0.90;;;;;;;;;;4488050;28;20320;-58
2023/02/14 11:31:39;;;;;;;0.95;0.90;;;;;;;;;;4490742;28;20126;-59
2023/02/14 11:33:50;;;;;;;1.00;0.95;;;;;;;;;;4489498;28;20153;-58
2023/02/14 11:36:01;;;;;;;0.85;0.85;;;;;;;;;;4490737;28;20225;-58
2023/02/14 11:38:24;;;;;;;0.90;0.88;;;;;;;;;;4489668;28;20080;-58
2023/02/14 11:40:36;;;;;;;1.23;0.90;;;;;;;;;;4488821;28;20727;-58
2023/02/14 11:42:47;;;;;;;1.27;0.98;;;;;;;;;;4490724;28;20030;-58
2023/02/14 11:44:58;;;;;;;1.05;0.85;;;;;;;;;;4488869;28;20034;-60
2023/02/14 11:47:16;;;;;;;0.90;0.90;;;;;;;;;;4489106;28;20044;-58
2023/02/14 11:49:27;;;;;;;0.77;0.77;;;;;;;;;;4490575;28;20556;-58
2023/02/14 11:51:41;;;;;;;1.20;1.10;;;;;;;;;;4490949;28;20050;-58
2023/02/14 11:53:53;;;;;;;1.10;1.00;;;;;;;;;;4489699;28;20045;-58
2023/02/14 11:56:04;;;;;;;1.60;1.20;;;;;;;;;;4493163;28;20179;-58
2023/02/14 11:58:26;;;;;;;1.10;1.00;;;;;;;;;;4492168;28;20156;-58
2023/02/14 12:00:37;;;;;;;1.20;1.10;;;;;;;;;;4495220;28;20577;-59
2023/02/14 12:02:48;;;;;;;0.80;0.80;;;;;;;;;;4495255;28;20041;-57
2023/02/14 12:05:13;;;;;;;1.02;0.90;;;;;;;;;;4500513;28;20026;-58
2023/02/14 12:07:31;;;;;;;0.80;0.80;;;;;;;;;;4491408;28;20093;-58
2023/02/14 12:09:42;;;;;;;0.80;0.80;;;;;;;;;;4492123;28;20991;-58
2023/02/14 12:11:56;;;;;;;1.52;1.25;;;;;;;;;;4489562;28;20068;-59
2023/02/14 12:14:18;;;;;;;0.88;0.88;;;;;;;;;;4491082;28;20030;-57
2023/02/14 12:16:34;;;;;;;1.08;1.02;;;;;;;;;;4492909;28;20049;-67
2023/02/14 12:18:47;;;;;;;1.00;0.90;;;;;;;;;;4495907;28;20041;-65
2023/02/14 12:21:18;;;;;;;0.70;0.70;;;;;;;;;;4493684;28;20045;-66
2023/02/14 12:23:38;;;;;;;0.80;0.80;;;;;;;;;;4489728;28;20045;-66
2023/02/14 12:25:55;;;;;;;1.05;1.00;;;;;;;;;;4502355;28;20041;-59
2023/02/14 12:28:10;;;;;;;0.80;0.80;;;;;;;;;;4490488;28;20038;-58
2023/02/14 12:30:22;;;;;;;1.10;1.00;;;;;;;;;;4492105;28;20722;-58
2023/02/14 12:32:33;;;;;;;1.38;1.00;;;;;;;;;;4491690;28;20948;-57
2023/02/14 12:34:44;;;;;;;0.70;0.70;;;;;;;;;;4493019;28;20038;-59
2023/02/14 12:37:15;;;;;;;0.90;0.90;;;;;;;;;;4492298;28;20483;-58
2023/02/14 12:39:29;;;;;;;0.65;0.65;;;;;;;;;;4491342;28;20089;-57
2023/02/14 12:41:39;;;;;;;0.80;0.80;;;;;;;;;;4490529;28;20281;-57
2023/02/14 12:43:52;;;;;;;1.10;1.00;;;;;;;;;;4492401;28;20030;-57
2023/02/14 12:46:08;;;;;;;1.55;0.90;;;;;;;;;;4491657;28;20042;-58
2023/02/14 12:48:27;;;;;;;1.15;1.05;;;;;;;;;;4491826;28;20058;-57
2023/02/14 12:50:42;;;;;;;1.10;1.00;;;;;;;;;;4492279;28;20034;-57
2023/02/14 12:52:58;;;;;;;0.80;0.80;;;;;;;;;;4492859;28;20041;-58
2023/02/14 12:55:14;;;;;;;1.10;1.00;;;;;;;;;;4491810;28;20617;-57
2023/02/14 12:57:46;;;;;;;1.20;1.10;;;;;;;;;;4491255;28;20030;-57
2023/02/14 12:59:56;;;;;;;1.40;1.30;;;;;;;;;;4490644;28;20042;-58
2023/02/14 13:02:12;;;;;;;1.10;1.00;;;;;;;;;;4492627;28;20092;-58
2023/02/14 13:04:38;;;;;;;1.20;1.10;;;;;;;;;;4490631;28;20093;-57
2023/02/14 13:07:08;;;;;;;1.27;1.17;;;;;;;;;;4491094;28;20038;-58
2023/02/14 13:09:24;;;;;;;1.38;0.98;;;;;;;;;;4491103;28;20064;-58
2023/02/14 13:11:38;;;;;;;1.05;0.95;;;;;;;;;;4491011;28;20041;-57
2023/02/14 13:14:03;;;;;;;1.20;1.10;;;;;;;;;;4492039;28;20042;-57
2023/02/14 13:16:17;;;;;;;1.48;1.23;;;;;;;;;;4490792;28;20569;-57
2023/02/14 13:18:34;;;;;;;1.30;1.20;;;;;;;;;;4500712;28;20021;-57
2023/02/14 13:20:51;;;;;;;1.20;1.10;;;;;;;;;;4499783;28;20687;-57
2023/02/14 13:23:09;;;;;;;1.05;0.95;;;;;;;;;;4501296;28;20073;-57
2023/02/14 13:25:29;;;;;;;0.90;0.90;;;;;;;;;;4491529;28;20049;-57
2023/02/14 13:27:40;;;;;;;1.10;1.00;;;;;;;;;;4491688;28;20045;-56
2023/02/14 13:30:07;;;;;;;1.40;1.20;;;;;;;;;;4489743;28;20101;-57